Time;durP1;ratioP1;P1;durP2;ratioP2;P2;SDS_P1;SDS_P2;PMS_P1;PMS_P2;Temp;Humidity;BMP_temperature;BMP_pressure;BME280_temperature;BME280_humidity;BME280_pressure;Samples;Min_cycle;Max_cycle;Signal;HPM_P1;HPM_P2
2022/05/18 06:51:08;;;;;;;10.73;5.63;;;22.80;99.90;;;;;;5042594;23;20053;-76
2022/05/18 06:53:34;;;;;;;8.63;5.88;;;22.90;99.90;;;;;;5025352;28;20029;-75
2022/05/18 06:56:00;;;;;;;10.82;5.65;;;22.90;99.90;;;;;;5034513;28;20021;-75
2022/05/18 06:58:26;;;;;;;8.75;5.53;;;23.00;99.90;;;;;;5031985;28;20039;-76
2022/05/18 07:00:52;;;;;;;9.88;6.07;;;23.10;99.90;;;;;;5033433;28;20060;-76
2022/05/18 07:03:17;;;;;;;15.10;6.07;;;23.10;99.90;;;;;;5033505;28;20501;-76
2022/05/18 07:05:44;;;;;;;13.40;5.93;;;23.20;99.90;;;;;;5027001;28;20041;-75
2022/05/18 07:08:10;;;;;;;8.65;5.90;;;23.20;99.90;;;;;;5013466;28;20029;-75
2022/05/18 07:10:36;;;;;;;9.63;6.85;;;23.30;99.90;;;;;;5013590;28;20026;-76
2022/05/18 07:13:01;;;;;;;11.35;6.60;;;23.30;99.90;;;;;;5013211;28;20068;-76
2022/05/18 07:15:27;;;;;;;8.93;6.60;;;23.30;99.90;;;;;;5013338;28;20432;-76
2022/05/18 07:17:53;;;;;;;12.27;6.43;;;23.30;99.90;;;;;;5013463;28;20026;-75
2022/05/18 07:20:19;;;;;;;15.25;7.28;;;23.40;99.90;;;;;;5013031;28;20033;-75
2022/05/18 07:22:45;;;;;;;11.60;7.93;;;23.40;99.90;;;;;;5013306;28;20101;-75
2022/05/18 07:25:11;;;;;;;12.90;7.60;;;23.50;99.90;;;;;;5011836;28;20053;-76
2022/05/18 07:27:37;;;;;;;20.15;7.05;;;23.50;99.90;;;;;;5013060;28;20092;-76
2022/05/18 07:30:04;;;;;;;8.73;7.35;;;23.50;99.90;;;;;;5013098;28;20053;-76
2022/05/18 07:32:30;;;;;;;10.95;7.30;;;23.50;99.90;;;;;;5011358;28;20424;-76
2022/05/18 07:34:56;;;;;;;10.07;7.38;;;23.60;99.90;;;;;;5011072;28;20026;-76
2022/05/18 07:37:22;;;;;;;11.50;6.65;;;23.70;99.90;;;;;;5010983;28;20022;-76
2022/05/18 07:39:47;;;;;;;11.05;7.78;;;23.70;99.90;;;;;;5010914;28;20033;-76
2022/05/18 07:42:13;;;;;;;13.10;7.45;;;23.80;99.90;;;;;;5010909;28;20033;-76
2022/05/18 07:44:40;;;;;;;5.35;4.80;;;23.80;99.90;;;;;;5010787;28;20029;-76
2022/05/18 07:47:07;;;;;;;6.75;3.20;;;23.90;99.90;;;;;;5010864;28;20068;-76
2022/05/18 07:49:40;;;;;;;4.35;3.22;;;24.20;98.80;;;;;;5010430;28;20033;-76
2022/05/18 07:52:07;;;;;;;5.40;3.35;;;24.30;97.20;;;;;;5011194;28;20129;-76
2022/05/18 07:54:34;;;;;;;5.10;3.05;;;24.40;96.50;;;;;;5011219;28;20479;-76
2022/05/18 07:57:00;;;;;;;5.13;3.45;;;24.60;95.00;;;;;;5011240;28;20112;-76
2022/05/18 07:59:26;;;;;;;3.72;1.95;;;24.60;95.20;;;;;;5012488;28;20034;-76
2022/05/18 08:01:52;;;;;;;2.60;2.40;;;24.50;94.40;;;;;;5012317;28;20057;-76
2022/05/18 08:04:18;;;;;;;2.03;1.80;;;24.50;94.50;;;;;;5011151;28;20521;-76
2022/05/18 08:06:44;;;;;;;3.03;2.70;;;24.60;94.20;;;;;;5012504;28;20045;-76
2022/05/18 08:09:10;;;;;;;3.95;1.85;;;24.60;93.70;;;;;;5012423;28;20029;-76
2022/05/18 08:17:04;;;;;;;1.67;1.58;;;24.70;92.10;;;;;;5012301;28;20041;-76
2022/05/18 08:19:30;;;;;;;1.70;1.60;;;24.80;91.50;;;;;;5012323;28;20026;-76
2022/05/18 08:21:56;;;;;;;2.33;1.45;;;24.80;90.50;;;;;;5012143;28;20530;-76
2022/05/18 08:24:22;;;;;;;2.45;1.40;;;24.90;91.20;;;;;;5012096;28;20037;-76
2022/05/18 08:26:48;;;;;;;4.18;1.45;;;25.10;90.70;;;;;;5012030;28;20025;-76
2022/05/18 08:29:13;;;;;;;3.13;1.98;;;25.10;89.50;;;;;;5012001;28;20029;-76
2022/05/18 08:31:39;;;;;;;5.45;1.48;;;25.00;88.30;;;;;;5011987;28;20392;-76
2022/05/18 08:34:05;;;;;;;2.35;1.63;;;25.00;88.60;;;;;;5011986;28;20053;-76
2022/05/18 08:36:32;;;;;;;3.22;1.60;;;25.00;89.50;;;;;;5011881;28;20053;-76
2022/05/18 08:38:58;;;;;;;1.70;1.60;;;25.00;90.30;;;;;;5011817;28;20614;-76
2022/05/18 08:41:34;;;;;;;4.03;1.38;;;24.90;90.70;;;;;;5012025;28;20018;-76
2022/05/18 08:44:05;;;;;;;2.10;1.40;;;25.00;90.30;;;;;;5011761;28;20573;-76
2022/05/18 08:47:09;;;;;;;3.40;1.98;;;25.00;90.50;;;;;;5011968;28;20022;-76
2022/05/18 08:49:57;;;;;;;2.20;2.10;;;25.00;90.30;;;;;;4994194;28;20022;-76
2022/05/18 08:52:40;;;;;;;3.58;1.50;;;25.20;90.80;;;;;;5011562;28;20045;-76
2022/05/18 08:55:37;;;;;;;1.80;1.33;;;25.30;90.60;;;;;;5011751;28;20038;-76
2022/05/18 08:58:08;;;;;;;1.85;1.50;;;25.20;86.90;;;;;;5011569;28;20441;-75
2022/05/18 09:00:38;;;;;;;3.67;1.40;;;25.30;88.30;;;;;;5011947;28;20026;-76
2022/05/18 09:03:16;;;;;;;10.68;1.70;;;25.30;87.30;;;;;;5016045;28;20080;-76
2022/05/18 09:06:00;;;;;;;1.50;1.40;;;25.40;87.50;;;;;;5012196;28;20021;-76
2022/05/18 09:08:38;;;;;;;1.90;1.75;;;25.40;88.90;;;;;;5014117;28;20034;-77
2022/05/18 09:11:15;;;;;;;3.10;1.70;;;25.50;89.30;;;;;;5015393;28;20037;-77
2022/05/18 09:13:59;;;;;;;1.63;1.52;;;25.50;89.00;;;;;;5013157;28;20033;-76
2022/05/18 09:16:35;;;;;;;3.70;1.83;;;25.50;87.80;;;;;;5014670;28;20092;-77
2022/05/18 09:19:01;;;;;;;10.95;2.30;;;25.50;88.40;;;;;;5013704;28;20030;-77
2022/05/18 09:21:48;;;;;;;4.40;1.80;;;25.50;89.20;;;;;;5015202;28;20044;-77
2022/05/18 09:24:35;;;;;;;2.38;1.70;;;25.60;90.20;;;;;;5015387;28;20030;-77
2022/05/18 09:27:10;;;;;;;3.45;1.98;;;25.70;90.80;;;;;;5015142;28;20026;-77
2022/05/18 09:29:55;;;;;;;1.77;1.67;;;25.80;90.00;;;;;;5015101;28;20026;-77
2022/05/18 09:32:37;;;;;;;2.25;1.95;;;25.80;89.10;;;;;;5012335;28;20546;-77
2022/05/18 09:35:39;;;;;;;1.70;1.60;;;25.90;88.00;;;;;;5010376;28;20029;-77
2022/05/18 09:38:17;;;;;;;2.00;1.90;;;26.00;87.90;;;;;;4992766;28;20038;-77
2022/05/18 09:40:46;;;;;;;5.95;3.10;;;25.90;87.50;;;;;;5010434;28;20053;-77
2022/05/18 09:43:21;;;;;;;1.85;1.75;;;25.90;88.50;;;;;;5010950;28;20490;-77
2022/05/18 09:45:48;;;;;;;2.45;2.00;;;25.90;88.80;;;;;;5011548;28;20025;-77
2022/05/18 09:48:37;;;;;;;3.22;2.38;;;25.90;90.00;;;;;;4992563;28;20186;-77
2022/05/18 09:51:04;;;;;;;2.13;1.92;;;26.00;89.70;;;;;;5002771;28;20038;-77
2022/05/18 09:53:31;;;;;;;2.20;2.05;;;25.90;88.90;;;;;;5010139;28;20030;-77
2022/05/18 09:55:56;;;;;;;3.45;2.05;;;25.90;89.20;;;;;;5010674;28;20475;-77
2022/05/18 09:58:45;;;;;;;1.90;1.80;;;25.90;90.10;;;;;;5010928;28;20026;-77
2022/05/18 10:09:41;;;;;;;4.35;1.83;;;26.30;90.90;;;;;;5020681;28;20128;-77
2022/05/18 10:12:21;;;;;;;2.25;1.80;;;26.50;90.40;;;;;;5019598;28;20031;-77
2022/05/18 10:14:57;;;;;;;1.73;1.60;;;26.60;89.20;;;;;;5018506;28;20021;-77
2022/05/18 10:17:35;;;;;;;4.35;1.90;;;26.50;89.30;;;;;;5025761;28;20025;-76
2022/05/18 10:20:08;;;;;;;1.88;1.77;;;26.70;87.90;;;;;;5017215;28;20026;-76
2022/05/18 10:22:40;;;;;;;2.42;2.30;;;26.80;88.30;;;;;;5010427;28;20029;-76
2022/05/18 10:25:09;;;;;;;4.05;1.80;;;26.80;88.70;;;;;;5009529;28;20026;-76
2022/05/18 10:27:38;;;;;;;2.88;2.30;;;26.90;86.80;;;;;;5009645;28;20497;-76
2022/05/18 10:30:04;;;;;;;4.18;1.90;;;26.90;88.50;;;;;;5014054;28;20033;-76
2022/05/18 10:32:31;;;;;;;7.57;2.17;;;27.00;88.20;;;;;;5017020;28;20072;-77
2022/05/18 10:34:58;;;;;;;1.95;1.80;;;27.10;87.80;;;;;;5017822;28;20498;-77
2022/05/18 10:37:27;;;;;;;3.13;2.10;;;27.10;86.60;;;;;;5020452;28;20026;-77
2022/05/18 10:40:03;;;;;;;1.80;1.70;;;27.20;87.90;;;;;;5012542;28;20022;-77
2022/05/18 10:42:39;;;;;;;5.95;1.98;;;27.20;85.90;;;;;;5025285;28;20391;-76
2022/05/18 10:45:27;;;;;;;2.08;1.95;;;27.30;84.20;;;;;;5026066;28;20026;-76
2022/05/18 10:48:16;;;;;;;3.95;2.33;;;27.40;82.80;;;;;;5011878;28;20430;-75
2022/05/18 10:50:45;;;;;;;2.30;2.20;;;27.60;87.30;;;;;;5022610;28;20029;-76
2022/05/18 10:53:13;;;;;;;2.08;1.88;;;27.80;85.90;;;;;;5028373;28;20513;-76
2022/05/18 10:55:58;;;;;;;3.97;1.98;;;28.00;85.80;;;;;;5016438;28;20063;-75
2022/05/18 10:58:27;;;;;;;2.25;1.90;;;28.20;85.90;;;;;;5016517;28;20347;-75
2022/05/18 11:01:02;;;;;;;2.58;1.85;;;28.10;84.90;;;;;;5019336;28;20029;-77
2022/05/18 11:03:45;;;;;;;2.42;2.22;;;28.10;83.80;;;;;;5008489;28;20029;-76
2022/05/18 11:06:17;;;;;;;2.05;1.90;;;28.00;85.10;;;;;;5016701;28;20040;-75
2022/05/18 11:08:43;;;;;;;2.40;2.30;;;28.20;85.20;;;;;;5015989;28;20401;-76
2022/05/18 11:11:45;;;;;;;3.10;2.90;;;28.20;83.80;;;;;;5001609;28;20432;-75
2022/05/18 11:14:44;;;;;;;2.20;2.00;;;28.40;83.60;;;;;;5016394;28;20553;-76
2022/05/18 11:17:47;;;;;;;9.18;2.58;;;28.50;82.60;;;;;;5017994;28;20482;-76
2022/05/18 11:20:25;;;;;;;3.60;3.03;;;28.20;81.30;;;;;;5015609;28;20033;-76
2022/05/18 11:23:22;;;;;;;2.90;2.67;;;28.10;81.60;;;;;;5008401;28;20037;-76
2022/05/18 11:26:21;;;;;;;2.92;2.63;;;28.20;82.90;;;;;;5007917;28;20571;-75
2022/05/18 11:29:19;;;;;;;4.35;2.83;;;28.50;83.80;;;;;;5006737;28;20392;-75
2022/05/18 11:32:19;;;;;;;4.32;3.13;;;28.60;83.60;;;;;;5008879;28;20028;-75
2022/05/18 11:35:04;;;;;;;4.05;3.40;;;28.30;82.00;;;;;;5008430;28;20102;-76
2022/05/18 11:37:45;;;;;;;3.00;2.70;;;28.10;82.30;;;;;;5008942;28;20591;-76
2022/05/18 11:40:35;;;;;;;8.52;3.78;;;28.10;84.50;;;;;;4991032;28;20052;-75
2022/05/18 11:43:33;;;;;;;3.47;3.28;;;28.20;85.20;;;;;;5007500;28;20391;-75
2022/05/18 11:46:25;;;;;;;2.92;2.72;;;28.20;82.40;;;;;;5008846;28;20105;-76
2022/05/18 11:49:00;;;;;;;;;;;28.20;84.10;;;;;;5008456;28;20458;-75
2022/05/18 11:51:40;;;;;;;3.95;2.78;;;28.30;84.50;;;;;;5007579;28;19917;-75
2022/05/18 11:54:48;;;;;;;3.70;2.88;;;28.60;84.50;;;;;;5007418;28;20030;-75
2022/05/18 11:57:45;;;;;;;3.17;2.80;;;29.00;82.30;;;;;;5007170;28;20105;-75
2022/05/18 12:03:38;;;;;;;3.80;2.65;;;28.90;80.10;;;;;;5000381;28;20049;-75
2022/05/18 12:06:16;;;;;;;3.22;2.72;;;28.90;82.30;;;;;;5006811;28;20029;-75
2022/05/18 12:08:48;;;;;;;4.50;2.95;;;29.10;81.20;;;;;;5008064;28;20487;-75
2022/05/18 12:11:13;;;;;;;;;;;29.00;80.90;;;;;;5008969;28;20727;-75
2022/05/18 12:13:54;;;;;;;4.20;3.42;;;29.10;81.60;;;;;;5007315;28;20137;-76
2022/05/18 12:16:39;;;;;;;3.55;3.15;;;29.00;80.20;;;;;;5009751;28;20459;-76
2022/05/18 12:19:07;;;;;;;5.97;3.22;;;29.20;80.50;;;;;;5008095;28;20018;-76
2022/05/18 12:21:53;;;;;;;7.55;3.92;;;28.80;79.40;;;;;;5007452;28;20033;-76
2022/05/18 12:24:20;;;;;;;4.20;3.85;;;28.60;81.10;;;;;;5007925;28;20041;-76
2022/05/18 12:26:46;;;;;;;4.28;3.55;;;28.30;83.40;;;;;;5007586;28;20025;-76
2022/05/18 12:29:18;;;;;;;7.50;3.95;;;28.20;84.70;;;;;;5008311;28;20021;-76
2022/05/18 12:31:44;;;;;;;5.30;3.72;;;28.20;83.50;;;;;;5007967;28;20109;-76
2022/05/18 12:34:13;;;;;;;3.50;3.25;;;28.10;83.90;;;;;;5007342;28;20025;-76
2022/05/18 12:36:53;;;;;;;4.22;3.70;;;28.10;83.60;;;;;;5007722;28;20057;-76
2022/05/18 12:39:41;;;;;;;5.35;3.00;;;28.30;83.30;;;;;;5007724;28;20112;-77
2022/05/18 12:42:10;;;;;;;4.13;3.22;;;28.40;81.80;;;;;;5006765;28;20030;-76
2022/05/18 12:44:45;;;;;;;8.27;3.47;;;28.30;82.10;;;;;;5006399;28;20073;-76
2022/05/18 12:47:52;;;;;;;3.38;2.90;;;28.30;82.20;;;;;;5008069;28;20033;-76
2022/05/18 12:50:35;;;;;;;3.78;3.40;;;28.40;83.50;;;;;;5022980;28;20072;-76
2022/05/18 12:53:11;;;;;;;6.15;3.13;;;28.60;83.70;;;;;;5011105;28;20056;-76
2022/05/18 12:55:39;;;;;;;2.83;2.53;;;28.60;82.20;;;;;;5021229;28;20034;-76
2022/05/18 12:58:04;;;;;;;4.05;2.85;;;28.40;81.50;;;;;;5006125;28;20439;-76
2022/05/18 13:00:30;;;;;;;6.63;2.97;;;28.30;81.20;;;;;;5004860;28;20034;-76
2022/05/18 13:03:16;;;;;;;4.15;2.95;;;28.10;79.90;;;;;;5016111;28;20037;-76
2022/05/18 13:05:47;;;;;;;6.75;2.38;;;28.40;81.20;;;;;;4999536;28;20402;-76
2022/05/18 13:08:16;;;;;;;4.57;2.28;;;28.80;81.50;;;;;;5008101;28;20391;-76
2022/05/18 13:11:14;;;;;;;2.67;2.47;;;28.80;80.00;;;;;;5005485;28;20041;-75
2022/05/18 13:13:58;;;;;;;5.65;2.63;;;28.90;80.50;;;;;;5009131;28;20021;-76
2022/05/18 13:16:39;;;;;;;2.83;2.55;;;28.80;80.20;;;;;;5008836;28;20962;-77
2022/05/18 13:19:14;;;;;;;2.85;2.65;;;29.10;81.00;;;;;;5022350;28;20022;-76
2022/05/18 13:21:52;;;;;;;3.33;2.70;;;29.30;78.60;;;;;;5013811;28;20026;-76
2022/05/18 13:24:20;;;;;;;3.25;2.67;;;29.50;78.40;;;;;;5017221;28;20060;-76
2022/05/18 13:26:49;;;;;;;5.75;2.40;;;29.60;77.90;;;;;;5009281;28;20388;-76
2022/05/18 13:29:24;;;;;;;2.75;2.25;;;29.70;75.60;;;;;;5017676;28;20395;-76
2022/05/18 13:31:54;;;;;;;2.53;2.40;;;29.70;76.60;;;;;;5023357;28;20057;-76
2022/05/18 13:34:23;;;;;;;7.30;2.55;;;29.90;77.90;;;;;;5022225;28;20029;-76
2022/05/18 13:36:56;;;;;;;2.40;2.20;;;30.20;78.40;;;;;;5024285;28;20662;-76
2022/05/18 13:39:43;;;;;;;3.13;2.85;;;30.40;77.00;;;;;;5015219;28;20033;-76
2022/05/18 13:42:10;;;;;;;4.05;2.40;;;30.30;74.90;;;;;;5023642;28;20499;-76
2022/05/18 13:44:37;;;;;;;4.88;3.10;;;30.00;75.90;;;;;;5009336;28;20025;-76
2022/05/18 13:47:03;;;;;;;5.18;2.85;;;29.80;75.90;;;;;;5015771;28;20107;-76
2022/05/18 13:49:38;;;;;;;4.95;2.35;;;29.70;76.40;;;;;;5008777;28;20030;-76
2022/05/18 13:52:29;;;;;;;2.85;2.65;;;29.40;75.40;;;;;;5005521;28;20128;-76
2022/05/18 13:55:06;;;;;;;2.88;2.67;;;29.30;76.70;;;;;;5003778;28;20048;-76
2022/05/18 13:57:41;;;;;;;5.97;2.60;;;29.20;77.10;;;;;;5007099;28;20041;-76
2022/05/18 14:00:16;;;;;;;2.30;2.20;;;29.30;77.20;;;;;;5010540;28;20034;-76
2022/05/18 14:02:42;;;;;;;2.83;2.63;;;29.60;77.10;;;;;;5003179;28;20041;-76
2022/05/18 14:05:11;;;;;;;3.05;2.78;;;29.80;76.00;;;;;;5010081;28;20018;-76
2022/05/18 14:07:41;;;;;;;2.83;2.58;;;29.90;76.00;;;;;;5009854;28;20383;-76
2022/05/18 14:10:09;;;;;;;5.85;2.40;;;29.70;73.80;;;;;;5010458;28;20026;-76
2022/05/18 14:12:35;;;;;;;3.22;2.45;;;29.50;76.20;;;;;;5010170;28;20018;-76
2022/05/18 14:15:05;;;;;;;5.28;2.42;;;29.30;76.80;;;;;;5009754;28;20030;-76
2022/05/18 14:17:34;;;;;;;2.90;2.70;;;29.10;76.30;;;;;;5010204;28;20594;-76
2022/05/18 14:20:20;;;;;;;3.47;3.17;;;28.70;76.20;;;;;;5010189;28;20067;-76
2022/05/18 14:22:56;;;;;;;3.05;2.85;;;28.50;77.80;;;;;;5006995;28;20026;-75
2022/05/18 14:25:28;;;;;;;5.55;2.70;;;28.30;79.60;;;;;;5013992;28;20022;-76
2022/05/18 14:27:57;;;;;;;3.38;2.97;;;28.40;80.10;;;;;;5013913;28;20057;-76
2022/05/18 14:30:29;;;;;;;2.85;2.58;;;28.30;80.50;;;;;;5013872;28;20442;-75
2022/05/18 14:32:58;;;;;;;2.67;2.42;;;28.50;79.70;;;;;;5013906;28;20049;-76
2022/05/18 14:35:42;;;;;;;2.95;2.75;;;28.80;80.30;;;;;;5013954;28;20053;-76
2022/05/18 14:38:11;;;;;;;2.70;2.50;;;28.90;79.30;;;;;;4996156;28;20026;-75
2022/05/18 14:40:45;;;;;;;3.50;2.45;;;28.90;79.20;;;;;;5003215;28;20022;-76
2022/05/18 14:43:20;;;;;;;2.83;2.42;;;29.10;78.60;;;;;;4994151;28;20029;-76
2022/05/18 14:45:54;;;;;;;2.53;2.35;;;29.60;80.00;;;;;;5007264;28;20064;-76
2022/05/18 14:48:29;;;;;;;3.08;2.10;;;29.60;77.70;;;;;;5012860;28;20106;-76
2022/05/18 14:51:13;;;;;;;2.63;2.42;;;29.30;77.60;;;;;;5007766;28;20112;-76
2022/05/18 14:53:55;;;;;;;3.83;2.75;;;29.00;78.30;;;;;;5009775;28;20100;-76
2022/05/18 14:56:21;;;;;;;3.67;2.50;;;28.90;79.20;;;;;;5009664;28;20057;-76
2022/05/18 14:58:54;;;;;;;2.88;2.47;;;28.80;79.20;;;;;;5009076;28;20070;-76
2022/05/18 15:01:34;;;;;;;6.50;2.40;;;28.60;79.20;;;;;;5009028;28;20022;-76
2022/05/18 15:04:27;;;;;;;3.80;2.97;;;28.40;78.90;;;;;;4991149;28;20026;-76
2022/05/18 15:07:00;;;;;;;4.28;2.33;;;28.40;79.20;;;;;;4998728;28;20044;-75
2022/05/18 15:09:35;;;;;;;2.30;2.20;;;28.20;79.00;;;;;;5007922;28;20034;-76
2022/05/18 15:12:11;;;;;;;2.10;1.95;;;28.10;78.30;;;;;;5007756;28;20041;-75
2022/05/18 15:14:51;;;;;;;3.63;2.35;;;28.10;78.70;;;;;;5008712;28;20536;-76
2022/05/18 15:17:26;;;;;;;4.05;2.10;;;28.20;79.40;;;;;;5008638;28;20109;-76
2022/05/18 15:20:24;;;;;;;2.72;2.50;;;28.30;78.20;;;;;;5008441;28;20018;-76
2022/05/18 15:23:11;;;;;;;3.58;2.25;;;28.80;78.90;;;;;;5008807;28;20030;-76
2022/05/18 15:26:02;;;;;;;3.17;1.77;;;28.90;75.90;;;;;;5009090;28;20113;-77
2022/05/18 15:28:42;;;;;;;4.33;2.27;;;28.80;76.20;;;;;;5009600;28;20018;-76
2022/05/18 15:31:41;;;;;;;2.25;2.15;;;28.50;76.80;;;;;;5007494;28;20026;-76
2022/05/18 15:34:32;;;;;;;3.70;2.40;;;28.40;77.80;;;;;;4951637;28;20037;-75
2022/05/18 15:37:01;;;;;;;5.78;2.75;;;28.30;78.10;;;;;;5004216;28;20442;-75
2022/05/18 15:39:27;;;;;;;2.65;2.03;;;28.20;78.60;;;;;;5005905;28;20033;-76
2022/05/18 15:42:01;;;;;;;2.03;1.83;;;28.10;77.10;;;;;;4991015;28;20121;-76
2022/05/18 15:44:27;;;;;;;8.82;2.35;;;28.00;77.30;;;;;;5009108;28;20371;-76
2022/05/18 15:46:57;;;;;;;4.28;2.63;;;27.80;77.80;;;;;;4990571;28;20072;-76
2022/05/18 15:49:29;;;;;;;3.90;2.17;;;27.90;79.10;;;;;;5008150;28;20526;-76
2022/05/18 15:52:01;;;;;;;1.85;1.75;;;27.80;78.90;;;;;;5010941;28;20041;-76
2022/05/18 15:54:43;;;;;;;5.57;2.15;;;27.80;78.40;;;;;;5017252;28;20026;-76
2022/05/18 15:57:09;;;;;;;2.58;2.17;;;27.60;78.70;;;;;;5009409;28;20038;-75
2022/05/18 15:59:35;;;;;;;1.92;1.77;;;27.70;79.00;;;;;;5023787;28;20061;-76
2022/05/18 16:02:01;;;;;;;2.42;2.33;;;27.60;77.90;;;;;;5028762;28;20052;-75
2022/05/18 16:04:30;;;;;;;2.60;2.28;;;27.60;78.80;;;;;;5027408;28;20071;-77
2022/05/18 16:06:56;;;;;;;3.20;2.25;;;27.60;78.70;;;;;;5028673;28;20024;-76
2022/05/18 16:09:22;;;;;;;2.08;1.95;;;27.70;78.70;;;;;;5028139;28;20025;-76
2022/05/18 16:11:49;;;;;;;4.13;2.20;;;27.60;77.80;;;;;;5028010;28;20021;-76
2022/05/18 16:14:17;;;;;;;2.42;2.05;;;27.60;77.30;;;;;;5027485;28;20026;-76
2022/05/18 16:16:42;;;;;;;2.20;2.00;;;27.70;77.70;;;;;;5028407;28;20025;-76
2022/05/18 16:19:08;;;;;;;2.75;1.63;;;27.80;77.10;;;;;;5027505;28;20911;-76
2022/05/18 16:21:35;;;;;;;1.98;1.88;;;28.30;77.40;;;;;;5027552;28;20026;-77
2022/05/18 16:24:25;;;;;;;2.10;1.90;;;28.80;75.10;;;;;;5028204;28;20017;-76
2022/05/18 16:26:51;;;;;;;2.75;1.77;;;29.10;72.50;;;;;;5027323;28;20026;-76
2022/05/18 16:29:25;;;;;;;2.00;1.90;;;29.40;72.60;;;;;;5028196;28;20079;-77
2022/05/18 16:31:50;;;;;;;4.18;1.80;;;29.80;70.60;;;;;;5028384;28;20091;-75
2022/05/18 16:34:16;;;;;;;4.57;2.30;;;29.60;71.00;;;;;;5025882;28;20038;-76
2022/05/18 16:36:42;;;;;;;2.22;2.03;;;29.60;70.80;;;;;;5027990;28;20036;-76
2022/05/18 16:39:11;;;;;;;3.83;2.10;;;29.30;70.60;;;;;;5027061;28;20076;-76
2022/05/18 16:41:38;;;;;;;1.73;1.63;;;29.50;71.80;;;;;;5026897;28;20018;-76
2022/05/18 16:44:11;;;;;;;2.03;1.92;;;29.50;71.30;;;;;;5028109;28;20025;-76
2022/05/18 16:46:39;;;;;;;3.40;1.85;;;29.40;70.10;;;;;;5028053;28;20022;-76
2022/05/18 16:49:05;;;;;;;2.10;2.00;;;29.80;70.70;;;;;;5026905;28;20052;-76
2022/05/18 16:51:32;;;;;;;2.80;1.85;;;29.90;69.40;;;;;;5027070;28;20061;-76
2022/05/18 16:53:58;;;;;;;3.55;1.90;;;30.20;68.70;;;;;;5027784;28;20032;-76
2022/05/18 16:56:25;;;;;;;2.33;1.83;;;30.40;68.50;;;;;;5027042;28;20108;-76
2022/05/18 16:58:52;;;;;;;2.80;1.90;;;30.20;67.00;;;;;;5027201;28;20030;-76
2022/05/18 17:01:20;;;;;;;1.58;1.48;;;30.10;67.20;;;;;;5026385;28;20022;-76
2022/05/18 17:03:50;;;;;;;1.80;1.70;;;29.80;67.50;;;;;;5026832;28;20104;-76
2022/05/18 17:06:17;;;;;;;2.22;1.92;;;29.50;68.40;;;;;;5026912;28;20022;-76
2022/05/18 17:09:09;;;;;;;2.72;2.00;;;29.20;70.90;;;;;;5028018;28;20443;-76
2022/05/18 17:11:47;;;;;;;2.20;1.77;;;29.00;69.80;;;;;;5008665;28;20045;-76
2022/05/18 17:14:12;;;;;;;3.60;1.80;;;28.90;70.10;;;;;;5026832;28;20030;-75
2022/05/18 17:16:45;;;;;;;3.33;2.30;;;28.50;68.80;;;;;;5026072;28;20084;-75
2022/05/18 17:19:11;;;;;;;2.95;1.85;;;28.30;70.10;;;;;;5030773;28;20112;-76
2022/05/18 17:21:37;;;;;;;1.98;1.88;;;28.50;70.30;;;;;;5030892;28;20022;-76
2022/05/18 17:24:03;;;;;;;6.15;2.10;;;28.60;70.10;;;;;;5034165;28;20025;-76
2022/05/18 17:26:36;;;;;;;4.30;1.80;;;28.60;70.10;;;;;;5017248;28;20072;-76
2022/05/18 17:29:29;;;;;;;2.42;2.22;;;28.60;71.00;;;;;;5031165;28;20022;-76
2022/05/18 17:31:55;;;;;;;3.28;2.10;;;28.40;71.60;;;;;;5019840;28;20088;-75
2022/05/18 17:34:22;;;;;;;2.28;1.88;;;28.20;71.60;;;;;;5032985;28;20091;-75
2022/05/18 17:36:48;;;;;;;2.35;1.58;;;28.20;71.90;;;;;;5033788;28;20025;-75
2022/05/18 17:39:14;;;;;;;2.70;2.10;;;28.10;71.60;;;;;;5034689;28;20036;-76
2022/05/18 17:41:40;;;;;;;5.47;2.08;;;28.00;71.40;;;;;;5034870;28;20109;-76
2022/05/18 17:44:06;;;;;;;3.60;2.10;;;27.90;72.30;;;;;;5016121;28;20105;-76
2022/05/18 17:46:33;;;;;;;4.07;2.20;;;27.70;73.20;;;;;;5033573;28;20030;-76
2022/05/18 17:48:59;;;;;;;5.22;1.85;;;27.60;72.70;;;;;;5033339;28;20029;-76
2022/05/18 17:51:25;;;;;;;3.63;1.90;;;27.50;73.60;;;;;;5027826;28;20045;-75
2022/05/18 17:53:51;;;;;;;6.20;2.08;;;27.40;72.90;;;;;;5031450;28;20545;-75
2022/05/18 17:56:18;;;;;;;1.70;1.60;;;27.30;72.80;;;;;;5016613;28;20029;-76
2022/05/18 17:58:46;;;;;;;5.70;2.10;;;27.20;73.80;;;;;;5017594;28;20133;-76
2022/05/18 18:01:22;;;;;;;3.10;1.85;;;27.10;73.80;;;;;;5014644;28;20387;-76
2022/05/18 18:03:58;;;;;;;1.92;1.75;;;27.00;74.70;;;;;;5014670;28;20406;-76
2022/05/18 18:06:24;;;;;;;3.03;1.88;;;26.90;75.30;;;;;;5013196;28;20044;-76
2022/05/18 18:08:50;;;;;;;3.28;2.03;;;26.80;75.20;;;;;;5014460;28;20037;-75
2022/05/18 18:11:16;;;;;;;2.80;2.30;;;26.70;75.70;;;;;;5013041;28;20026;-76
2022/05/18 18:13:43;;;;;;;2.58;2.25;;;26.60;76.30;;;;;;5014549;28;20034;-75
2022/05/18 18:16:09;;;;;;;2.05;1.95;;;26.60;76.40;;;;;;5014301;28;20022;-76
2022/05/18 18:18:40;;;;;;;4.97;2.72;;;26.50;76.10;;;;;;5013657;28;20041;-76
2022/05/18 18:21:06;;;;;;;2.08;1.88;;;26.50;76.20;;;;;;5010663;28;20108;-76
2022/05/18 18:23:34;;;;;;;5.45;2.28;;;26.50;76.20;;;;;;5010090;28;20041;-76
2022/05/18 18:26:05;;;;;;;3.22;2.15;;;26.40;76.20;;;;;;5009383;28;20471;-75
2022/05/18 18:28:31;;;;;;;5.28;2.03;;;26.30;76.50;;;;;;5010029;28;20448;-76
2022/05/18 18:30:57;;;;;;;4.30;1.88;;;26.30;76.30;;;;;;5009999;28;20109;-76
2022/05/18 18:33:22;;;;;;;2.17;1.98;;;26.20;76.60;;;;;;5009166;28;20067;-76
2022/05/18 18:35:51;;;;;;;6.40;2.35;;;26.20;76.90;;;;;;5010379;28;20057;-76
2022/05/18 18:38:25;;;;;;;3.80;2.15;;;26.20;77.70;;;;;;5009168;28;20076;-76
2022/05/18 18:40:51;;;;;;;4.90;2.35;;;26.10;78.50;;;;;;5020569;28;20029;-75
2022/05/18 18:43:26;;;;;;;2.58;2.40;;;26.10;79.50;;;;;;5029518;28;20013;-76
2022/05/18 18:48:37;;;;;;;6.20;2.28;;;25.90;80.10;;;;;;5029112;28;20040;-76
2022/05/18 18:56:54;;;;;;;4.00;2.67;;;25.50;80.80;;;;;;5015022;28;20125;-76
2022/05/18 18:59:20;;;;;;;4.60;2.63;;;25.50;81.00;;;;;;5005963;28;20494;-76
2022/05/18 19:01:47;;;;;;;2.42;2.05;;;25.40;80.40;;;;;;5013361;28;20537;-76
2022/05/18 19:04:13;;;;;;;2.67;2.25;;;25.40;81.00;;;;;;5028787;28;20112;-76
2022/05/18 19:06:43;;;;;;;2.65;2.40;;;25.30;81.80;;;;;;5031008;28;20112;-75
2022/05/18 19:09:13;;;;;;;4.57;2.22;;;25.30;82.30;;;;;;5017172;28;20353;-76
2022/05/18 19:11:41;;;;;;;5.88;2.13;;;25.20;80.70;;;;;;5019289;28;20070;-75
2022/05/18 19:14:09;;;;;;;5.30;2.50;;;25.20;81.80;;;;;;5027894;28;20021;-76
2022/05/18 19:16:37;;;;;;;3.45;2.10;;;25.20;80.00;;;;;;5028007;28;20029;-76
2022/05/18 19:19:05;;;;;;;3.15;1.92;;;25.10;80.40;;;;;;5028903;28;20067;-76
2022/05/18 19:21:35;;;;;;;3.33;1.83;;;25.00;79.20;;;;;;5028240;28;20021;-76
2022/05/18 19:24:03;;;;;;;3.47;1.70;;;25.00;80.00;;;;;;5027756;28;20224;-76
2022/05/18 19:26:30;;;;;;;3.78;1.98;;;25.00;78.80;;;;;;5028322;28;20021;-76
2022/05/18 19:28:57;;;;;;;4.13;1.90;;;25.00;78.80;;;;;;5028914;28;20037;-76
2022/05/18 19:31:24;;;;;;;5.00;2.38;;;24.90;79.30;;;;;;5027823;28;20025;-76
2022/05/18 19:33:50;;;;;;;2.55;1.98;;;24.90;79.60;;;;;;5028461;28;20033;-76
2022/05/18 19:36:16;;;;;;;3.70;2.00;;;24.80;80.10;;;;;;5028703;28;20393;-76
2022/05/18 19:38:42;;;;;;;1.90;1.60;;;24.80;79.40;;;;;;5027989;28;20040;-76
2022/05/18 19:41:10;;;;;;;2.28;2.08;;;24.80;76.80;;;;;;5028332;28;20026;-76
2022/05/18 19:43:40;;;;;;;1.75;1.48;;;24.80;76.80;;;;;;5028699;28;20072;-76
2022/05/18 19:46:07;;;;;;;2.42;1.90;;;24.80;77.30;;;;;;5025393;28;20037;-76
2022/05/18 19:48:33;;;;;;;2.40;1.85;;;24.80;76.20;;;;;;5018959;28;20057;-76
2022/05/18 19:51:01;;;;;;;4.07;2.00;;;24.80;75.90;;;;;;5016134;28;20034;-76
2022/05/18 19:53:28;;;;;;;1.95;1.80;;;24.70;74.80;;;;;;5017189;28;20029;-76
2022/05/18 19:55:54;;;;;;;1.85;1.75;;;24.70;75.10;;;;;;5008049;28;20410;-76
2022/05/18 19:58:34;;;;;;;2.88;1.95;;;24.60;75.40;;;;;;5026281;28;20430;-77
2022/05/18 20:01:01;;;;;;;2.20;2.00;;;24.60;75.40;;;;;;5026062;28;20014;-77
2022/05/18 20:03:28;;;;;;;2.80;2.00;;;24.60;75.50;;;;;;5025975;28;20029;-76
2022/05/18 20:05:57;;;;;;;3.58;1.70;;;24.60;74.10;;;;;;5025552;28;20399;-76
2022/05/18 20:08:23;;;;;;;2.75;1.60;;;24.50;75.00;;;;;;5026273;28;20156;-76
2022/05/18 20:10:49;;;;;;;7.53;2.00;;;24.50;75.60;;;;;;5025612;28;20128;-76
2022/05/18 20:13:19;;;;;;;3.30;1.90;;;24.40;74.70;;;;;;5026463;28;20024;-75
2022/05/18 20:16:00;;;;;;;1.90;1.80;;;24.40;75.10;;;;;;5025092;28;20626;-76
2022/05/18 20:18:28;;;;;;;2.05;1.85;;;24.40;75.90;;;;;;5024458;28;20475;-76
2022/05/18 20:21:00;;;;;;;3.28;1.90;;;24.30;76.10;;;;;;5027687;28;20109;-76
2022/05/18 20:23:28;;;;;;;2.88;1.85;;;24.30;76.50;;;;;;5020637;28;20084;-77
2022/05/18 20:25:55;;;;;;;4.95;2.05;;;24.20;76.10;;;;;;5026790;28;20029;-76
2022/05/18 20:28:25;;;;;;;1.80;1.70;;;24.30;76.80;;;;;;5027983;28;20569;-77
2022/05/18 20:30:52;;;;;;;4.45;1.60;;;24.30;77.10;;;;;;5026327;28;20029;-77
2022/05/18 20:33:20;;;;;;;5.35;1.88;;;24.20;77.00;;;;;;5026530;28;20129;-77